WetterOnline ( https://www.wetteronline.ch )

Wetter aktuell Straubing

Aktuelles Wetter: Straubing (360m)

6-stündlich | Neueste Meldungen
Ortszeit Temperatur Wetter
Mi, 24.04. 2:00 11.2° C bedeckt
Di, 23.04. 20:00 15.2° C bedeckt
Di, 23.04. 14:00 19.4° C wolkig
Di, 23.04. 8:00 12.2° C wolkig
Di, 23.04. 2:00 10.1° C -
Mo, 22.04. 20:00 17.6° C wolkig
Mo, 22.04. 14:00 21.6° C leicht bewölkt
So, 21.04. 20:00 17.9° C wolkenlos
Ortszeit Temperatur Wetter
Mi, 24.04. 6:30 10.2° C leicht bewölkt
Mi, 24.04. 6:20 10.2° C leicht bewölkt
Mi, 24.04. 6:10 9.9° C fast wolkenlos
Mi, 24.04. 6:00 9.9° C wolkig
Mi, 24.04. 5:50 9.9° C wolkig
Mi, 24.04. 5:40 9.8° C wolkig
Mi, 24.04. 5:30 9.8° C leicht bewölkt
Mi, 24.04. 5:00 10.1° C bewölkt
Mi, 24.04. 4:30 10.2° C bewölkt
Mi, 24.04. 4:00 10.0° C leicht bewölkt
Mi, 24.04. 3:30 10.4° C wolkig
Ortszeit Relative Feuchte Sichtweite
Mi, 24.04. 2:00 68% 55 km
Di, 23.04. 20:00 56% >70 km
Di, 23.04. 14:00 40% 45 km
Di, 23.04. 8:00 59% 45 km
Di, 23.04. 2:00 66% -
Mo, 22.04. 20:00 37% 60 km
Mo, 22.04. 14:00 25% 50 km
So, 21.04. 20:00 32% 55 km
Ortszeit Relative Feuchte Sichtweite
Mi, 24.04. 6:30 74% 45 km
Mi, 24.04. 6:20 74% -
Mi, 24.04. 6:10 75% -
Mi, 24.04. 6:00 75% 50 km
Mi, 24.04. 5:50 75% -
Mi, 24.04. 5:40 75% -
Mi, 24.04. 5:30 75% 50 km
Mi, 24.04. 5:00 74% 50 km
Mi, 24.04. 4:30 73% 55 km
Mi, 24.04. 4:00 73% 60 km
Mi, 24.04. 3:30 72% 60 km
Ortszeit Niederschlagsmenge Niederschlagsart
Mi, 24.04. 2:00 0.0 l/m2 in 6 Std. -
Di, 23.04. 20:00 0.1 l/m2 in 12 Std. Regen
Di, 23.04. 14:00 0.0 l/m2 in 6 Std. -
Di, 23.04. 8:00 0.0 l/m2 in 3 Std. -
Di, 23.04. 2:00 0.0 l/m2 in 6 Std. -
Mo, 22.04. 20:00 0.0 l/m2 in 3 Std. -
Mo, 22.04. 14:00 0.0 l/m2 in 3 Std. -
So, 21.04. 20:00 0.0 l/m2 in 3 Std. -
Ortszeit Niederschlagsmenge Niederschlagsart
Mi, 24.04. 6:30 0.0 l/m2 in 1 Std. -
Mi, 24.04. 6:20 keine Meldung -
Mi, 24.04. 6:10 keine Meldung -
Mi, 24.04. 6:00 0.0 l/m2 in 1 Std. -
Mi, 24.04. 5:50 keine Meldung -
Mi, 24.04. 5:40 keine Meldung -
Mi, 24.04. 5:30 0.0 l/m2 in 1 Std. -
Mi, 24.04. 5:00 0.0 l/m2 in 1 Std. -
Mi, 24.04. 4:30 0.0 l/m2 in 1 Std. -
Mi, 24.04. 4:00 0.0 l/m2 in 1 Std. -
Mi, 24.04. 3:30 0.0 l/m2 in 1 Std. -
Ortszeit Stärke Spitze Richtung
km/h Bft. km/h Grad Sektor
Mi, 24.04. 2:00 18 3 43 110° O
Di, 23.04. 20:00 29 5 58 100° O
Di, 23.04. 14:00 36 5 50 120° SO
Di, 23.04. 8:00 22 4 40 110° O
Di, 23.04. 2:00 14 3 - 90° O
Mo, 22.04. 20:00 19 3 43 90° O
Mo, 22.04. 14:00 17 3 31 80° O
So, 21.04. 20:00 11 2 25 20° N
Ortszeit Stärke Spitze Richtung
km/h Bft. km/h Grad Sektor
Mi, 24.04. 6:30 17 3 24 120° SO
Mi, 24.04. 6:20 17 3 - 120° SO
Mi, 24.04. 6:10 15 3 - 120° SO
Mi, 24.04. 6:00 17 3 28 120° SO
Mi, 24.04. 5:50 17 3 - 120° SO
Mi, 24.04. 5:40 14 3 - 130° SO
Mi, 24.04. 5:30 17 3 28 120° SO
Mi, 24.04. 5:00 18 3 25 120° SO
Mi, 24.04. 4:30 17 3 26 120° SO
Mi, 24.04. 4:00 17 3 24 120° SO
Mi, 24.04. 3:30 14 3 25 120° SO
Ortszeit Untergrenze Bedeckung Gattung
total tief tief mittel hoch
Mi, 24.04. 2:00 6000 m 8/8 8/8 - - -
Di, 23.04. 20:00 2100 m 8/8 8/8 - - -
Di, 23.04. 14:00 2700 m 8/8 1/8 - - -
Di, 23.04. 8:00 8700 m 8/8 0/8 - - -
Di, 23.04. 2:00 - - - - - -
Mo, 22.04. 20:00 7800 m 8/8 0/8 - - -
Mo, 22.04. 14:00 9000 m 8/8 0/8 - - -
So, 21.04. 20:00 - 0/8 0/8 - - -
Ortszeit Bedeckungsgrad in Achtel und Wolkenuntergrenze
Mi, 24.04. 6:30 2(4200m)
Mi, 24.04. 6:20 2(4200m)
Mi, 24.04. 6:10 2(9000m)
Mi, 24.04. 6:00 7(9000m)
Mi, 24.04. 5:50 7(9000m)
Mi, 24.04. 5:40 7(9000m)
Mi, 24.04. 5:30 2(3900m) 5(9000m)
Mi, 24.04. 5:00 7(3600m) 7(4200m)
Mi, 24.04. 4:30 7(3900m) 6(4200m)
Mi, 24.04. 4:00 4(6900m) 5(7200m)
Mi, 24.04. 3:30 8(7200m)
Ortszeit Luftdruck NN (hPa) Tendenz (hPa in 3 Std.)
Mi, 24.04. 2:00 1004 + 0,4
Di, 23.04. 20:00 1002 + 0,8
Di, 23.04. 14:00 1001 - 0,6
Di, 23.04. 8:00 1002 - 0,4
Di, 23.04. 2:00 1004 - 2,1
Mo, 22.04. 20:00 1006 - 0,6
Mo, 22.04. 14:00 1008 - 2,5
So, 21.04. 20:00 1016 - 1,4
Ortszeit Luftdruck NN (hPa) Tendenz (hPa in 3 Std.)
Mi, 24.04. 6:30 1004 + 0,8
Mi, 24.04. 6:20 1004 keine Meldung
Mi, 24.04. 6:10 1005 keine Meldung
Mi, 24.04. 6:00 1004 + 0,8
Mi, 24.04. 5:50 1004 keine Meldung
Mi, 24.04. 5:40 1004 keine Meldung
Mi, 24.04. 5:30 1004 + 0,2
Mi, 24.04. 5:00 1004 0,0
Mi, 24.04. 4:30 1004 + 0,2
Mi, 24.04. 4:00 1004 + 0,2
Mi, 24.04. 3:30 1004 + 0,1
Ortszeit Schneehöhe (cm)
Mi, 24.04. 2:00 0
Di, 23.04. 20:00 0
Di, 23.04. 14:00 0
Di, 23.04. 8:00 0
Di, 23.04. 2:00 0
Mo, 22.04. 20:00 0
Mo, 22.04. 14:00 0
So, 21.04. 20:00 0
Ortszeit Schneehöhe (cm)
Mi, 24.04. 6:30 0
Mi, 24.04. 6:20 0
Mi, 24.04. 6:10 0
Mi, 24.04. 6:00 0
Mi, 24.04. 5:50 0
Mi, 24.04. 5:40 0
Mi, 24.04. 5:30 0
Mi, 24.04. 5:00 0
Mi, 24.04. 4:30 0
Mi, 24.04. 4:00 0
Mi, 24.04. 3:30 0
Link zu dieser Seite / Seite empfehlen

Das Wetter in ...